Time;durP1;ratioP1;P1;durP2;ratioP2;P2;SDS_P1;SDS_P2;PMS_P1;PMS_P2;Temp;Humidity;BMP_temperature;BMP_pressure;BME280_temperature;BME280_humidity;BME280_pressure;Samples;Min_cycle;Max_cycle;Signal;HPM_P1;HPM_P2
2022/05/15 00:02:12;;;;;;;2.45;1.47;;;;;;;22.48;41.44;101599.34;1665434;84;21537;-49
2022/05/15 00:04:39;;;;;;;2.50;1.32;;;;;;;22.46;41.18;101606.53;1683019;84;21521;-49
2022/05/15 00:07:06;;;;;;;2.80;1.50;;;;;;;22.45;41.00;101601.33;1679592;84;21105;-49
2022/05/15 00:09:33;;;;;;;2.72;1.50;;;;;;;22.41;40.78;101608.61;1681071;84;21515;-50
2022/05/15 00:12:02;;;;;;;2.80;1.70;;;;;;;22.35;41.00;101603.66;1679140;84;21090;-49
2022/05/15 00:14:31;;;;;;;2.42;1.50;;;;;;;22.31;41.12;101600.80;1682246;84;21061;-49
2022/05/15 00:16:57;;;;;;;3.58;1.45;;;;;;;22.26;41.19;101594.89;1673793;84;21033;-49
2022/05/15 00:19:25;;;;;;;1.57;1.47;;;;;;;22.26;41.42;101598.88;1698467;84;21037;-49
2022/05/15 00:21:52;;;;;;;3.72;1.40;;;;;;;22.24;41.51;101596.78;1695546;83;21533;-49
2022/05/15 00:24:20;;;;;;;1.85;1.37;;;;;;;22.21;41.55;101603.59;1679106;85;21015;-49
2022/05/15 00:26:46;;;;;;;6.17;1.77;;;;;;;22.20;41.24;101608.50;1678675;85;21522;-49
2022/05/15 00:29:15;;;;;;;2.37;1.50;;;;;;;22.17;41.09;101610.02;1680527;85;21042;-49
2022/05/15 00:31:42;;;;;;;1.47;1.35;;;;;;;22.16;40.79;101606.96;1680636;85;21035;-46
2022/05/15 00:34:08;;;;;;;2.08;1.45;;;;;;;22.12;41.09;101611.19;1673646;85;21038;-49
2022/05/15 00:36:36;;;;;;;3.55;1.37;;;;;;;22.12;41.15;101605.42;1680770;85;21122;-49
2022/05/15 00:39:05;;;;;;;3.00;1.70;;;;;;;22.13;40.86;101609.80;1696629;84;21588;-49
2022/05/15 00:41:34;;;;;;;2.10;1.47;;;;;;;22.13;40.75;101623.05;1664610;85;21044;-49
2022/05/15 00:44:01;;;;;;;2.35;1.42;;;;;;;22.12;40.53;101612.52;1678289;84;21089;-49
2022/05/15 00:46:31;;;;;;;2.37;1.70;;;;;;;22.12;40.61;101613.84;1669194;84;21078;-49
2022/05/15 00:49:00;;;;;;;2.75;1.65;;;;;;;22.13;41.70;101620.41;1677352;83;21009;-49
2022/05/15 00:51:36;;;;;;;5.30;1.90;;;;;;;22.11;41.85;101609.03;1674434;84;21065;-49
2022/05/15 00:54:30;;;;;;;2.58;1.80;;;;;;;22.09;41.98;101616.19;1661657;85;21161;-49
2022/05/15 00:57:09;;;;;;;4.58;1.98;;;;;;;22.03;42.32;101611.23;1691911;84;21727;-49
2022/05/15 00:59:41;;;;;;;2.20;1.70;;;;;;;21.99;42.56;101613.66;1691119;83;21088;-49
2022/05/15 01:02:09;;;;;;;2.08;1.87;;;;;;;21.98;42.23;101613.30;1683245;84;21089;-49
2022/05/15 01:04:36;;;;;;;2.52;1.55;;;;;;;21.95;42.80;101611.30;1697785;83;21053;-49
2022/05/15 01:07:04;;;;;;;2.30;1.70;;;;;;;21.92;42.43;101616.28;1678268;84;21071;-49
2022/05/15 01:09:31;;;;;;;1.87;1.77;;;;;;;21.91;42.99;101611.91;1664798;84;20990;-49
2022/05/15 01:11:57;;;;;;;3.85;1.72;;;;;;;21.90;43.49;101615.52;1696835;83;21100;-50
2022/05/15 01:14:25;;;;;;;2.90;1.82;;;;;;;21.89;44.14;101621.74;1680080;85;21086;-49
2022/05/15 01:16:52;;;;;;;2.62;1.75;;;;;;;21.88;43.63;101621.38;1680759;85;21538;-49
2022/05/15 01:19:35;;;;;;;3.92;2.12;;;;;;;21.87;43.42;101620.97;1655550;84;21497;-49
2022/05/15 01:22:02;;;;;;;2.17;1.50;;;;;;;21.85;43.71;101618.88;1680949;85;21093;-48
2022/05/15 01:24:29;;;;;;;2.72;1.67;;;;;;;21.81;43.67;101622.59;1676473;84;21014;-49
2022/05/15 01:26:58;;;;;;;6.22;1.92;;;;;;;21.77;42.61;101623.70;1680193;85;21589;-49
2022/05/15 01:29:31;;;;;;;1.70;1.57;;;;;;;21.72;42.57;101616.50;1680643;85;21022;-49
2022/05/15 01:32:01;;;;;;;1.90;1.25;;;;;;;21.67;42.22;101623.82;1680549;85;21090;-49
2022/05/15 01:34:28;;;;;;;5.55;1.80;;;;;;;21.60;41.89;101619.31;1680769;85;21101;-49
2022/05/15 01:36:55;;;;;;;4.17;1.65;;;;;;;21.59;41.83;101623.37;1680638;85;21113;-49
2022/05/15 01:39:22;;;;;;;2.75;1.70;;;;;;;21.57;41.91;101618.17;1693222;83;21148;-49
2022/05/15 01:41:50;;;;;;;1.77;1.40;;;;;;;21.57;42.17;101609.36;1705009;83;21007;-49
2022/05/15 01:44:17;;;;;;;2.42;1.80;;;;;;;21.57;42.47;101610.69;1698045;83;21002;-49
2022/05/15 01:46:44;;;;;;;2.20;2.00;;;;;;;21.53;42.26;101599.87;1680001;85;21574;-48
2022/05/15 01:49:13;;;;;;;2.67;1.45;;;;;;;21.50;42.34;101602.67;1703141;83;21037;-47
2022/05/15 01:51:41;;;;;;;2.60;1.50;;;;;;;21.49;42.38;101607.59;1675668;84;21050;-47
2022/05/15 01:54:08;;;;;;;2.42;1.80;;;;;;;21.48;41.85;101601.90;1664374;85;21074;-47
2022/05/15 01:56:36;;;;;;;3.83;1.50;;;;;;;21.48;41.68;101599.25;1682549;84;21212;-47
2022/05/15 01:59:04;;;;;;;2.92;1.22;;;;;;;21.48;41.80;101605.88;1672829;83;21493;-48
2022/05/15 02:01:31;;;;;;;1.85;1.52;;;;;;;21.49;41.73;101604.95;1684993;83;21096;-47
2022/05/15 02:03:59;;;;;;;3.87;1.60;;;;;;;21.49;41.79;101607.59;1702997;83;21091;-48
2022/05/15 02:06:28;;;;;;;2.20;1.55;;;;;;;21.48;42.15;101611.17;1671340;84;21431;-47
2022/05/15 02:08:55;;;;;;;2.98;1.30;;;;;;;21.49;42.27;101607.59;1683057;83;21031;-47
2022/05/15 02:11:22;;;;;;;2.72;1.55;;;;;;;21.48;42.05;101610.70;1695481;84;21526;-47
2022/05/15 02:13:49;;;;;;;2.35;1.65;;;;;;;21.50;42.19;101611.94;1686378;84;21068;-47
2022/05/15 02:16:16;;;;;;;1.80;1.50;;;;;;;21.49;41.75;101613.76;1680811;84;21564;-47
2022/05/15 02:18:44;;;;;;;2.87;1.52;;;;;;;21.47;42.09;101613.45;1677825;84;21048;-47
2022/05/15 02:21:12;;;;;;;2.37;1.62;;;;;;;21.46;42.15;101623.17;1692807;83;21011;-47
2022/05/15 02:23:39;;;;;;;2.72;1.55;;;;;;;21.44;42.24;101634.31;1692838;84;21014;-47
2022/05/15 02:26:06;;;;;;;2.42;1.60;;;;;;;21.44;42.12;101632.12;1680503;85;20996;-48
2022/05/15 02:28:33;;;;;;;2.15;1.35;;;;;;;21.42;42.41;101640.63;1702054;83;21544;-47
2022/05/15 02:31:01;;;;;;;1.90;1.60;;;;;;;21.41;42.19;101634.95;1679198;83;21045;-47
2022/05/15 02:33:28;;;;;;;2.92;1.50;;;;;;;21.41;42.36;101630.98;1680048;84;21485;-47
2022/05/15 02:35:54;;;;;;;3.00;1.47;;;;;;;21.42;42.46;101631.35;1677659;84;21098;-47
2022/05/15 02:38:21;;;;;;;2.02;1.37;;;;;;;21.41;42.47;101633.63;1686563;84;21046;-47
2022/05/15 02:40:48;;;;;;;2.02;1.40;;;;;;;21.39;42.66;101635.02;1689716;83;21548;-47
2022/05/15 02:43:16;;;;;;;3.80;1.67;;;;;;;21.41;42.95;101635.78;1687133;84;21103;-47
2022/05/15 02:45:43;;;;;;;5.42;1.75;;;;;;;21.41;43.40;101638.44;1698644;83;21080;-47
2022/05/15 02:51:03;;;;;;;3.05;1.45;;;;;;;21.43;43.59;101644.50;1683358;84;21552;-47
2022/05/15 02:53:19;;;;;;;2.00;1.47;;;;;;;21.43;43.58;101644.50;1653219;86;21052;-49
2022/05/15 02:55:46;;;;;;;4.08;1.98;;;;;;;21.42;43.68;101637.52;1658277;86;21064;-47
2022/05/15 02:58:13;;;;;;;5.10;1.50;;;;;;;21.41;43.83;101635.78;1661358;86;21052;-47
2022/05/15 03:00:40;;;;;;;3.85;1.90;;;;;;;21.41;43.94;101646.87;1659803;86;21092;-47
2022/05/15 03:03:07;;;;;;;2.20;1.50;;;;;;;21.40;44.08;101657.92;1655424;86;21072;-47
2022/05/15 03:05:33;;;;;;;2.80;1.75;;;;;;;21.40;43.88;101660.57;1644768;85;21239;-47
2022/05/15 03:08:00;;;;;;;1.60;1.50;;;;;;;21.41;44.15;101651.67;1637757;86;21108;-47
2022/05/15 03:10:27;;;;;;;3.65;1.90;;;;;;;21.42;44.46;101660.48;1604575;87;21082;-47
2022/05/15 03:12:56;;;;;;;3.25;1.82;;;;;;;21.42;44.34;101656.05;1640671;86;21609;-47
2022/05/15 03:15:23;;;;;;;2.52;1.65;;;;;;;21.42;43.95;101658.70;1634715;87;21118;-47
2022/05/15 03:17:49;;;;;;;2.72;1.45;;;;;;;21.43;43.61;101663.04;1612430;87;21088;-47
2022/05/15 03:20:17;;;;;;;2.47;1.30;;;;;;;21.43;43.16;101658.23;1624554;86;21562;-48
2022/05/15 03:22:44;;;;;;;3.95;1.47;;;;;;;21.45;43.12;101665.63;1644585;85;21095;-47
2022/05/15 03:25:11;;;;;;;3.08;1.47;;;;;;;21.47;42.95;101662.44;1637132;85;21110;-47
2022/05/15 03:27:38;;;;;;;2.30;1.60;;;;;;;21.53;43.09;101660.78;1640618;86;21602;-47
2022/05/15 03:30:07;;;;;;;5.00;1.67;;;;;;;21.66;43.14;101657.39;1646744;85;21074;-47
2022/05/15 03:32:35;;;;;;;3.50;1.17;;;;;;;21.92;43.03;101658.69;1678717;84;21542;-47
2022/05/15 03:35:04;;;;;;;4.53;1.70;;;;;;;22.27;42.64;101660.72;1684675;84;21025;-47
2022/05/15 03:37:31;;;;;;;4.40;1.60;;;;;;;22.73;42.25;101662.98;1656505;84;21033;-48
2022/05/15 03:39:58;;;;;;;5.28;1.90;;;;;;;23.20;41.53;101665.02;1690642;84;21002;-48
2022/05/15 03:42:25;;;;;;;4.15;1.50;;;;;;;23.55;40.81;101663.78;1696844;83;21547;-48
2022/05/15 03:44:53;;;;;;;1.40;1.27;;;;;;;23.72;40.37;101656.93;1683192;85;21033;-47
2022/05/15 03:47:20;;;;;;;1.82;1.30;;;;;;;23.75;40.04;101663.40;1690759;83;21151;-47
2022/05/15 03:49:47;;;;;;;2.65;1.45;;;;;;;23.70;39.98;101660.16;1684685;84;21084;-48
2022/05/15 03:52:14;;;;;;;4.65;1.40;;;;;;;23.60;39.83;101657.70;1679152;84;21510;-47
2022/05/15 03:54:41;;;;;;;1.75;1.42;;;;;;;23.46;39.77;101666.98;1688083;84;21058;-47
2022/05/15 03:57:08;;;;;;;2.17;1.20;;;;;;;23.34;40.02;101671.72;1704808;83;21623;-47
2022/05/15 03:59:37;;;;;;;2.02;1.45;;;;;;;23.19;40.46;101663.30;1706652;83;21093;-48
2022/05/15 04:02:05;;;;;;;2.05;1.47;;;;;;;23.06;41.17;101672.45;1703667;83;22121;-47
2022/05/15 04:04:33;;;;;;;1.85;1.50;;;;;;;22.94;41.63;101678.95;1704523;83;21466;-47
2022/05/15 04:07:01;;;;;;;3.20;1.60;;;;;;;22.80;41.87;101678.45;1686393;84;21033;-46
2022/05/15 04:09:30;;;;;;;3.70;1.47;;;;;;;22.70;42.13;101676.41;1683293;84;21101;-47
2022/05/15 04:11:57;;;;;;;3.77;1.77;;;;;;;22.61;42.39;101669.82;1699225;83;21058;-47
2022/05/15 04:14:24;;;;;;;2.42;1.50;;;;;;;22.55;42.41;101675.45;1672980;84;21053;-47
2022/05/15 04:16:52;;;;;;;2.75;1.47;;;;;;;22.49;42.13;101675.33;1693367;83;21099;-47
2022/05/15 04:19:19;;;;;;;4.72;2.30;;;;;;;22.45;42.49;101677.77;1703475;83;21093;-47
2022/05/15 04:21:45;;;;;;;1.72;1.50;;;;;;;22.44;43.06;101678.70;1679560;85;21563;-47
2022/05/15 04:24:15;;;;;;;3.52;1.80;;;;;;;22.41;43.77;101681.55;1680622;85;21077;-47
2022/05/15 04:26:42;;;;;;;2.30;1.60;;;;;;;22.39;44.33;101678.13;1678929;85;21069;-47
2022/05/15 04:29:09;;;;;;;3.08;1.60;;;;;;;22.38;44.41;101684.35;1680703;85;21542;-47
2022/05/15 04:31:36;;;;;;;4.20;1.80;;;;;;;22.38;44.34;101685.67;1698844;84;21088;-47
2022/05/15 04:34:04;;;;;;;2.90;1.45;;;;;;;22.38;44.49;101681.70;1682336;85;21050;-47
2022/05/15 04:36:31;;;;;;;2.75;1.70;;;;;;;22.38;44.27;101689.66;1680729;85;21011;-47
2022/05/15 04:38:58;;;;;;;3.15;1.35;;;;;;;22.35;44.18;101688.52;1700796;83;21516;-49
2022/05/15 04:41:25;;;;;;;2.92;1.47;;;;;;;22.34;44.46;101688.61;1679436;85;21042;-47
2022/05/15 04:43:52;;;;;;;3.87;1.90;;;;;;;22.32;44.69;101695.30;1671379;85;21538;-47
2022/05/15 04:46:19;;;;;;;7.37;1.92;;;;;;;22.31;44.47;101688.77;1704773;83;21048;-47
2022/05/15 04:48:46;;;;;;;6.70;1.55;;;;;;;22.27;44.29;101694.72;1699665;83;21054;-47
2022/05/15 04:51:13;;;;;;;3.42;1.75;;;;;;;22.24;44.76;101696.20;1673332;85;21093;-47
2022/05/15 04:53:40;;;;;;;2.58;1.55;;;;;;;22.23;44.26;101701.13;1668170;84;21139;-47
2022/05/15 04:56:07;;;;;;;6.15;1.70;;;;;;;22.21;43.88;101700.83;1680968;83;21021;-48
2022/05/15 04:58:35;;;;;;;4.00;1.65;;;;;;;22.22;43.70;101704.71;1682915;84;21323;-47
2022/05/15 05:01:02;;;;;;;4.50;1.75;;;;;;;22.23;43.02;101702.46;1699404;84;21049;-47
2022/05/15 05:03:28;;;;;;;2.70;1.57;;;;;;;22.24;43.44;101704.62;1698225;84;21641;-47
2022/05/15 05:05:55;;;;;;;3.92;1.90;;;;;;;22.26;43.59;101709.36;1683673;84;21078;-48
2022/05/15 05:08:22;;;;;;;3.92;1.55;;;;;;;22.31;43.03;101706.87;1697138;84;21495;-47
2022/05/15 05:10:49;;;;;;;2.67;1.60;;;;;;;22.35;42.80;101705.75;1696516;83;21002;-48
2022/05/15 05:13:17;;;;;;;3.98;1.77;;;;;;;22.41;42.94;101705.41;1670823;84;21040;-47
2022/05/15 05:15:45;;;;;;;3.25;1.90;;;;;;;22.48;42.43;101706.77;1670426;84;21069;-47
2022/05/15 05:18:16;;;;;;;2.90;1.92;;;;;;;22.56;42.56;101711.19;1671306;84;21054;-47
2022/05/15 05:20:44;;;;;;;4.83;1.60;;;;;;;22.69;41.63;101710.53;1677238;84;21007;-47
2022/05/15 05:23:12;;;;;;;4.53;1.80;;;;;;;22.88;41.07;101711.16;1695244;83;21076;-47
2022/05/15 05:25:39;;;;;;;3.65;1.75;;;;;;;23.14;40.72;101711.85;1697142;83;22560;-48
2022/05/15 05:28:06;;;;;;;5.12;1.90;;;;;;;23.50;40.28;101707.03;1677236;84;21050;-48
2022/05/15 05:30:34;;;;;;;3.25;1.65;;;;;;;23.94;39.87;101707.83;1698552;83;21041;-47
2022/05/15 05:33:01;;;;;;;3.15;1.80;;;;;;;24.40;38.84;101710.28;1683852;84;21057;-48
2022/05/15 05:35:28;;;;;;;5.28;1.80;;;;;;;24.83;37.76;101717.22;1672463;84;21041;-48
2022/05/15 05:37:55;;;;;;;2.65;1.62;;;;;;;25.20;37.29;101716.48;1697980;83;21560;-48
2022/05/15 05:40:22;;;;;;;4.72;1.72;;;;;;;25.59;36.31;101717.79;1681562;85;21069;-48
2022/05/15 05:42:49;;;;;;;2.80;1.67;;;;;;;25.94;35.84;101713.12;1680759;85;21061;-48
2022/05/15 05:45:17;;;;;;;3.25;1.80;;;;;;;26.26;35.29;101719.71;1680544;85;21094;-48
2022/05/15 05:47:46;;;;;;;5.40;2.22;;;;;;;26.45;35.19;101714.76;1698067;83;21619;-48
2022/05/15 05:50:13;;;;;;;3.37;1.87;;;;;;;26.58;35.05;101716.91;1698203;83;21039;-48
2022/05/15 05:52:39;;;;;;;3.35;1.87;;;;;;;26.57;34.97;101716.05;1705062;83;21117;-48
2022/05/15 05:55:10;;;;;;;3.98;1.70;;;;;;;26.58;34.87;101718.25;1674932;84;21102;-48
2022/05/15 05:57:38;;;;;;;3.12;1.57;;;;;;;26.61;34.38;101716.20;1670598;84;21026;-48
2022/05/15 06:00:09;;;;;;;3.17;1.60;;;;;;;26.70;34.32;101719.16;1689885;83;21568;-48
2022/05/15 06:02:38;;;;;;;3.17;2.00;;;;;;;26.82;34.11;101719.13;1664311;84;21526;-48
2022/05/15 06:05:06;;;;;;;2.58;1.57;;;;;;;26.95;33.80;101717.27;1678658;84;21106;-48
2022/05/15 06:07:37;;;;;;;2.40;1.92;;;;;;;27.06;33.58;101726.64;1686417;84;21151;-48
2022/05/15 06:10:09;;;;;;;3.12;1.60;;;;;;;27.16;33.34;101723.64;1675779;83;21582;-48
2022/05/15 06:12:36;;;;;;;4.47;1.90;;;;;;;27.29;33.59;101724.42;1655355;84;20993;-48
2022/05/15 06:15:06;;;;;;;2.77;1.70;;;;;;;27.33;33.47;101730.38;1685369;84;21516;-48
2022/05/15 06:17:33;;;;;;;2.67;1.70;;;;;;;27.31;33.67;101726.97;1688776;83;21033;-48
2022/05/15 06:20:05;;;;;;;4.70;1.80;;;;;;;27.41;33.08;101728.51;1671667;85;21502;-48
2022/05/15 06:22:31;;;;;;;2.35;1.52;;;;;;;27.48;32.62;101724.38;1666795;84;21033;-48
2022/05/15 06:24:58;;;;;;;2.30;1.42;;;;;;;27.48;32.94;101727.05;1678816;84;21081;-48
2022/05/15 06:27:25;;;;;;;3.90;1.55;;;;;;;27.51;32.76;101724.16;1680029;84;21518;-48
2022/05/15 06:29:56;;;;;;;3.65;1.57;;;;;;;27.54;32.80;101725.23;1679728;84;21558;-48
2022/05/15 06:32:20;;;;;;;3.35;1.70;;;;;;;27.63;32.81;101722.72;1678776;84;21568;-47
2022/05/15 06:34:47;;;;;;;3.52;1.87;;;;;;;27.81;32.78;101725.77;1667647;84;21053;-48
2022/05/15 06:37:16;;;;;;;2.70;1.70;;;;;;;28.01;32.76;101727.27;1665746;84;21104;-48
2022/05/15 06:39:43;;;;;;;4.12;1.52;;;;;;;28.19;32.37;101725.80;1682154;84;21075;-48
2022/05/15 06:42:10;;;;;;;3.80;2.00;;;;;;;28.33;32.22;101723.37;1682082;84;21533;-48
2022/05/15 06:44:39;;;;;;;2.50;1.57;;;;;;;28.48;32.15;101722.11;1627776;86;21112;-48
2022/05/15 06:47:06;;;;;;;2.83;1.60;;;;;;;28.65;31.77;101717.60;1635957;85;21113;-48
2022/05/15 06:49:34;;;;;;;3.35;1.47;;;;;;;28.81;31.51;101724.73;1678185;84;21143;-48
2022/05/15 06:52:01;;;;;;;3.58;1.45;;;;;;;28.93;30.88;101722.88;1680018;85;21546;-49
2022/05/15 06:54:28;;;;;;;2.30;1.60;;;;;;;29.03;30.78;101730.99;1665652;85;21095;-48
2022/05/15 06:59:42;;;;;;;3.92;1.50;;;;;;;29.24;30.13;101728.75;1662997;85;21068;-48
2022/05/15 07:02:09;;;;;;;3.95;1.57;;;;;;;29.34;29.93;101727.47;1675908;84;21084;-48
2022/05/15 07:04:35;;;;;;;2.30;1.72;;;;;;;29.42;29.21;101719.61;1675294;85;21572;-47
2022/05/15 07:07:04;;;;;;;2.30;1.40;;;;;;;29.45;29.09;101722.05;1671265;85;21050;-48
2022/05/15 07:09:31;;;;;;;2.70;1.30;;;;;;;29.55;28.99;101716.25;1670827;84;21058;-48
2022/05/15 07:11:58;;;;;;;3.55;1.65;;;;;;;29.72;29.11;101719.64;1667999;84;21028;-49
2022/05/15 07:14:25;;;;;;;1.98;1.27;;;;;;;29.91;28.07;101714.42;1673562;84;21565;-48
2022/05/15 07:16:51;;;;;;;3.65;1.32;;;;;;;30.09;27.39;101711.97;1680798;84;21069;-48
2022/05/15 07:19:18;;;;;;;3.33;1.30;;;;;;;30.25;26.10;101710.44;1675371;84;21069;-48
2022/05/15 07:21:45;;;;;;;1.32;0.95;;;;;;;30.40;25.52;101711.80;1675412;84;21661;-48
2022/05/15 07:24:12;;;;;;;2.92;1.37;;;;;;;30.44;25.00;101715.91;1668869;84;21080;-48
2022/05/15 07:26:44;;;;;;;3.45;1.12;;;;;;;30.37;25.10;101720.14;1665900;84;21152;-47
2022/05/15 07:29:09;;;;;;;7.03;1.55;;;;;;;30.32;25.49;101714.32;1654995;84;21073;-48
2022/05/15 07:31:36;;;;;;;1.95;1.25;;;;;;;30.26;25.41;101714.84;1680363;84;21084;-48
2022/05/15 07:34:03;;;;;;;4.10;1.17;;;;;;;30.17;24.66;101712.95;1683587;84;21235;-48
2022/05/15 07:36:31;;;;;;;1.55;1.27;;;;;;;30.09;25.32;101718.68;1681889;84;21065;-48
2022/05/15 07:38:57;;;;;;;3.15;1.17;;;;;;;30.01;25.15;101714.45;1667665;85;21121;-48
2022/05/15 07:41:24;;;;;;;1.75;1.00;;;;;;;29.87;24.65;101723.72;1675395;84;21548;-48
2022/05/15 07:43:51;;;;;;;1.98;1.10;;;;;;;29.69;24.98;101717.25;1663056;84;21049;-48
2022/05/15 07:46:18;;;;;;;1.62;1.15;;;;;;;29.48;24.43;101716.41;1665988;84;21622;-48
2022/05/15 07:48:46;;;;;;;2.35;1.25;;;;;;;29.24;24.73;101718.50;1685458;84;21080;-48
2022/05/15 07:51:13;;;;;;;1.12;0.98;;;;;;;29.05;24.39;101719.66;1672093;85;21671;-48
2022/05/15 07:53:40;;;;;;;2.08;1.15;;;;;;;28.84;24.86;101716.45;1675577;84;21097;-48
2022/05/15 07:56:12;;;;;;;1.95;1.00;;;;;;;28.70;25.42;101710.53;1674724;83;21517;-48
2022/05/15 07:58:40;;;;;;;2.00;1.05;;;;;;;28.57;25.84;101713.37;1669479;84;21030;-49
2022/05/15 08:01:07;;;;;;;4.00;1.57;;;;;;;28.42;25.77;101716.42;1681674;84;21085;-48
2022/05/15 08:03:43;;;;;;;3.83;1.35;;;;;;;28.16;26.22;101710.48;1702101;84;21474;-47
2022/05/15 08:08:53;;;;;;;3.15;1.00;;;;;;;27.78;26.62;101701.95;1673235;84;21083;-49
2022/05/15 08:11:20;;;;;;;1.85;1.22;;;;;;;27.68;27.06;101699.61;1699648;83;21045;-48
2022/05/15 08:13:48;;;;;;;4.78;1.30;;;;;;;27.66;27.68;101698.88;1680759;84;21115;-48
2022/05/15 08:16:15;;;;;;;2.22;1.10;;;;;;;27.68;28.29;101699.13;1672659;84;21557;-48
2022/05/15 08:24:14;;;;;;;2.80;1.20;;;;;;;27.73;28.89;101686.74;1660565;85;21141;-48
2022/05/15 08:26:41;;;;;;;1.75;1.15;;;;;;;27.69;29.13;101679.45;1673429;84;21109;-48
2022/05/15 08:29:10;;;;;;;2.00;1.22;;;;;;;27.64;29.60;101686.11;1679450;84;21050;-48
2022/05/15 08:31:38;;;;;;;3.05;1.55;;;;;;;27.65;29.73;101695.85;1675119;84;21074;-47
2022/05/15 08:34:07;;;;;;;4.35;1.70;;;;;;;27.68;29.58;101702.28;1677381;83;21040;-48
2022/05/15 08:36:35;;;;;;;0.88;0.80;;;;;;;27.72;29.56;101700.59;1673143;83;21061;-48
2022/05/15 08:39:02;;;;;;;2.65;1.30;;;;;;;27.81;29.24;101685.65;1677620;84;21061;-49
2022/05/15 08:41:41;;;;;;;3.85;1.40;;;;;;;27.89;29.78;101691.23;1673383;84;21054;-48
2022/05/15 08:44:29;;;;;;;4.70;1.45;;;;;;;27.92;32.33;101701.71;1689280;84;21077;-49
2022/05/15 08:47:12;;;;;;;2.62;1.75;;;;;;;27.89;34.51;101696.59;1568105;90;21688;-47
2022/05/15 08:49:57;;;;;;;1.87;1.60;;;;;;;27.83;35.42;101699.75;1554186;90;21135;-48
2022/05/15 08:52:47;;;;;;;3.35;1.60;;;;;;;27.79;35.81;101704.98;1557020;91;21182;-48
2022/05/15 08:55:21;;;;;;;2.10;1.40;;;;;;;27.80;35.99;101718.73;1551410;91;21680;-48
2022/05/15 08:58:19;;;;;;;2.67;1.70;;;;;;;27.82;36.07;101716.79;1502491;94;21092;-48
2022/05/15 09:00:51;;;;;;;6.45;1.60;;;;;;;27.82;36.25;101710.10;1508155;94;21101;-48
2022/05/15 09:03:22;;;;;;;4.00;1.95;;;;;;;27.77;36.01;101712.27;1516941;93;21119;-48
2022/05/15 09:09:03;;;;;;;2.25;1.45;;;;;;;27.49;36.47;101704.70;1507204;94;21283;-47
2022/05/15 09:15:00;;;;;;;2.15;1.60;;;;;;;27.21;36.12;101714.80;1465611;95;21151;-48
2022/05/15 09:17:58;;;;;;;4.03;2.20;;;;;;;27.06;36.83;101709.27;1451428;96;29272;-47
2022/05/15 09:20:44;;;;;;;3.40;1.80;;;;;;;26.92;37.28;101709.46;1465604;95;21104;-48
2022/05/15 09:23:35;;;;;;;4.25;1.65;;;;;;;26.83;36.91;101712.81;1464802;93;21155;-47
2022/05/15 09:26:22;;;;;;;1.90;1.50;;;;;;;26.73;36.62;101707.78;1522563;93;21111;-48
2022/05/15 09:28:53;;;;;;;3.37;1.50;;;;;;;26.65;36.87;101700.80;1525323;92;21124;-47
2022/05/15 09:31:27;;;;;;;3.08;1.62;;;;;;;26.61;36.85;101698.84;1531823;93;21313;-47
2022/05/15 09:34:03;;;;;;;3.58;1.60;;;;;;;26.61;36.75;101696.65;1522910;93;21104;-48
2022/05/15 09:36:38;;;;;;;2.60;1.32;;;;;;;26.66;36.13;101705.66;1502163;94;21099;-48
2022/05/15 09:39:16;;;;;;;3.75;1.70;;;;;;;26.67;36.37;101704.20;1492933;94;21135;-49
2022/05/15 09:44:35;;;;;;;5.28;2.10;;;;;;;26.71;37.57;101697.67;1540733;91;21104;-47
2022/05/15 09:47:13;;;;;;;3.47;1.77;;;;;;;26.67;37.68;101704.20;1561014;90;21088;-48
2022/05/15 09:49:40;;;;;;;2.05;1.45;;;;;;;26.62;38.00;101703.70;1604171;89;21561;-47
2022/05/15 09:52:18;;;;;;;2.72;1.60;;;;;;;26.57;38.47;101704.52;1601736;89;21034;-47
2022/05/15 09:54:47;;;;;;;1.57;1.35;;;;;;;26.50;38.97;101701.95;1594248;89;21024;-48
2022/05/15 09:57:22;;;;;;;6.25;2.05;;;;;;;26.42;39.25;101700.32;1592242;89;21141;-48
2022/05/15 09:59:59;;;;;;;2.70;1.35;;;;;;;26.35;39.54;101705.72;1589237;89;21060;-47
2022/05/15 10:02:44;;;;;;;1.95;1.50;;;;;;;26.30;39.54;101698.52;1546177;92;21097;-48
2022/05/15 10:05:21;;;;;;;2.80;1.67;;;;;;;26.27;39.38;101702.75;1528559;92;21600;-48
2022/05/15 10:08:10;;;;;;;2.08;1.50;;;;;;;26.22;38.83;101698.22;1524625;92;21138;-47
2022/05/15 10:10:48;;;;;;;2.10;1.70;;;;;;;26.19;37.84;101691.78;1545083;88;21079;-47
2022/05/15 10:13:30;;;;;;;2.75;1.60;;;;;;;26.12;37.86;101690.51;1634135;86;21031;-47
2022/05/15 10:16:02;;;;;;;4.72;1.77;;;;;;;26.09;37.93;101689.41;1637511;87;21051;-47
2022/05/15 10:18:32;;;;;;;3.70;1.80;;;;;;;26.06;37.40;101688.25;1638176;87;21061;-47
2022/05/15 10:20:58;;;;;;;2.30;1.50;;;;;;;26.03;37.16;101688.48;1630319;86;21098;-47
2022/05/15 10:23:29;;;;;;;2.95;1.50;;;;;;;25.98;36.94;101681.28;1618483;87;21083;-47
2022/05/15 10:26:06;;;;;;;2.90;1.37;;;;;;;25.95;37.23;101682.81;1634242;86;21057;-47
2022/05/15 10:28:50;;;;;;;2.33;1.70;;;;;;;25.91;37.00;101684.00;1563482;91;21198;-48
2022/05/15 10:31:25;;;;;;;3.08;1.47;;;;;;;25.89;37.52;101685.45;1552103;92;21595;-47
2022/05/15 10:33:56;;;;;;;3.00;1.60;;;;;;;25.90;38.10;101679.64;1541824;93;21187;-48
2022/05/15 10:37:14;;;;;;;1.65;1.30;;;;;;;25.95;37.46;101676.15;1484939;96;21147;-46
2022/05/15 10:40:22;;;;;;;2.87;1.45;;;;;;;25.99;37.24;101675.83;1507580;93;21051;-47
2022/05/15 10:42:58;;;;;;;2.87;1.60;;;;;;;26.03;36.83;101675.15;1542053;92;21137;-47
2022/05/15 10:45:50;;;;;;;3.27;1.35;;;;;;;26.09;36.19;101672.91;1546986;92;21121;-47
2022/05/15 10:48:45;;;;;;;1.75;1.17;;;;;;;26.17;36.98;101670.53;1546978;91;21085;-47
2022/05/15 10:51:35;;;;;;;2.80;1.52;;;;;;;26.24;37.82;101677.14;1524736;93;21572;-47
2022/05/15 10:57:42;;;;;;;6.30;1.40;;;;;;;26.29;37.75;101676.81;1540701;92;21063;-47
2022/05/15 11:00:31;;;;;;;2.08;1.40;;;;;;;26.24;38.35;101678.95;1532117;93;21126;-48
2022/05/15 11:03:49;;;;;;;2.65;1.45;;;;;;;26.18;37.97;101666.91;1525248;93;21098;-47
2022/05/15 11:06:41;;;;;;;2.15;1.35;;;;;;;26.11;37.69;101664.81;1530909;93;21075;-48
2022/05/15 11:09:32;;;;;;;2.37;1.22;;;;;;;26.02;36.93;101658.28;1488788;93;21113;-48
2022/05/15 11:12:17;;;;;;;3.30;1.22;;;;;;;26.05;36.84;101661.22;1521293;93;21143;-47
2022/05/15 11:15:27;;;;;;;2.67;1.20;;;;;;;26.10;37.37;101647.09;1475133;96;21676;-47
2022/05/15 11:18:31;;;;;;;1.77;1.10;;;;;;;26.19;36.67;101643.77;1441129;97;21160;-47
2022/05/15 11:21:02;;;;;;;2.15;1.47;;;;;;;26.24;36.64;101647.80;1482549;95;21111;-47
2022/05/15 11:23:42;;;;;;;1.20;1.10;;;;;;;26.26;36.53;101650.34;1483875;95;21040;-47
2022/05/15 11:26:23;;;;;;;3.17;1.40;;;;;;;26.26;36.69;101651.67;1515643;92;21276;-47
2022/05/15 11:28:57;;;;;;;1.90;1.27;;;;;;;26.23;36.64;101653.25;1484367;95;21755;-47
2022/05/15 11:31:32;;;;;;;2.77;1.47;;;;;;;26.20;36.79;101653.45;1473982;95;21158;-47
2022/05/15 11:34:02;;;;;;;2.22;1.10;;;;;;;26.19;36.89;101653.10;1491632;94;21138;-48
2022/05/15 11:36:36;;;;;;;3.02;1.47;;;;;;;26.18;36.59;101647.37;1470034;96;21215;-47
2022/05/15 11:39:22;;;;;;;1.72;1.05;;;;;;;26.18;36.61;101647.37;1499264;93;21125;-47
2022/05/15 11:42:09;;;;;;;2.05;1.22;;;;;;;26.17;36.82;101649.70;1453821;95;21138;-48
2022/05/15 11:44:41;;;;;;;2.35;0.93;;;;;;;26.16;37.23;101651.50;1452053;96;21122;-47
2022/05/15 11:47:29;;;;;;;3.60;1.40;;;;;;;26.18;37.43;101648.71;1431312;98;21654;-47
2022/05/15 11:50:12;;;;;;;2.55;1.37;;;;;;;26.16;38.10;101641.30;1432713;98;21614;-47
2022/05/15 11:52:45;;;;;;;2.10;1.22;;;;;;;26.15;38.43;101642.28;1476951;95;21636;-47
2022/05/15 11:55:40;;;;;;;3.33;1.50;;;;;;;26.14;38.83;101644.09;1457451;97;21097;-48
2022/05/15 11:58:33;;;;;;;2.80;1.57;;;;;;;26.18;38.74;101639.38;1453722;96;21116;-47
2022/05/15 12:01:36;;;;;;;3.40;1.20;;;;;;;26.22;38.93;101632.85;1439495;98;21144;-47
2022/05/15 12:04:09;;;;;;;2.47;1.25;;;;;;;26.23;39.42;101633.23;1452872;97;21141;-47
2022/05/15 12:06:59;;;;;;;2.70;1.35;;;;;;;26.21;39.24;101621.83;1437100;99;21084;-47
2022/05/15 12:09:40;;;;;;;2.58;1.40;;;;;;;26.18;39.43;101633.56;1441565;96;21100;-47
2022/05/15 12:12:31;;;;;;;2.37;1.42;;;;;;;26.18;39.83;101620.70;1455811;97;21108;-47